Time;durP1;ratioP1;P1;durP2;ratioP2;P2;SDS_P1;SDS_P2;PMS_P1;PMS_P2;Temp;Humidity;BMP_temperature;BMP_pressure;BME280_temperature;BME280_humidity;BME280_pressure;Samples;Min_cycle;Max_cycle;Signal;HPM_P1;HPM_P2
2022/04/27 00:02:03;;;;;;;9.33;5.90;;;7.70;99.90;;;;;;5093532;28;20223;-50
2022/04/27 00:04:29;;;;;;;11.47;6.40;;;7.70;99.90;;;;;;5108733;28;20206;-50
2022/04/27 00:06:54;;;;;;;10.83;6.30;;;7.60;99.90;;;;;;5109397;28;20165;-50
2022/04/27 00:09:20;;;;;;;12.17;6.03;;;7.70;99.90;;;;;;5102383;28;20212;-50
2022/04/27 00:11:45;;;;;;;12.73;6.03;;;7.70;99.90;;;;;;5108740;28;20263;-51
2022/04/27 00:14:11;;;;;;;15.57;6.77;;;7.60;99.90;;;;;;5104213;28;20287;-50
2022/04/27 00:16:36;;;;;;;9.37;6.70;;;7.60;99.90;;;;;;5103589;28;20242;-51
2022/04/27 00:19:02;;;;;;;11.20;7.30;;;7.50;99.90;;;;;;5106102;28;20228;-50
2022/04/27 00:21:28;;;;;;;17.87;7.03;;;7.50;99.90;;;;;;5106168;28;20260;-50
2022/04/27 00:23:53;;;;;;;13.70;7.30;;;7.40;99.90;;;;;;5108276;28;20446;-50
2022/04/27 00:26:19;;;;;;;10.57;6.47;;;7.30;99.90;;;;;;5112272;28;20200;-51
2022/04/27 00:28:45;;;;;;;10.57;6.70;;;7.20;99.90;;;;;;5112078;28;20219;-50
2022/04/27 00:31:10;;;;;;;9.87;6.23;;;7.10;99.90;;;;;;5108583;28;20192;-50
2022/04/27 00:33:36;;;;;;;9.17;7.27;;;7.10;99.90;;;;;;5105954;28;20181;-50
2022/04/27 00:36:01;;;;;;;16.33;6.83;;;7.00;99.90;;;;;;5112499;28;20204;-50
2022/04/27 00:38:27;;;;;;;10.60;5.70;;;7.00;99.90;;;;;;5112772;28;20291;-50
2022/04/27 00:40:52;;;;;;;12.00;6.27;;;7.00;99.90;;;;;;5111749;28;20215;-50
2022/04/27 00:43:34;;;;;;;12.20;6.90;;;7.00;99.90;;;;;;5112395;28;20213;-50
2022/04/27 00:46:00;;;;;;;11.40;6.77;;;7.00;99.90;;;;;;5107312;28;20634;-50
2022/04/27 00:48:25;;;;;;;11.77;6.30;;;6.90;99.90;;;;;;5106114;28;20484;-50
2022/04/27 00:50:52;;;;;;;11.50;7.23;;;6.90;99.90;;;;;;5109132;28;20672;-50
2022/04/27 00:53:17;;;;;;;13.63;6.60;;;6.90;99.90;;;;;;5106744;28;20188;-50
2022/04/27 00:55:43;;;;;;;10.80;6.50;;;6.80;99.90;;;;;;5104873;28;20446;-50
2022/04/27 00:58:12;;;;;;;17.63;6.60;;;6.80;99.90;;;;;;5095524;28;20634;-50
2022/04/27 01:00:38;;;;;;;13.13;7.40;;;6.70;99.90;;;;;;5093609;28;20184;-50
2022/04/27 01:03:03;;;;;;;14.07;7.73;;;6.70;99.90;;;;;;5105212;28;20946;-50
2022/04/27 01:05:29;;;;;;;12.20;6.33;;;6.60;99.90;;;;;;5093256;28;20201;-50
2022/04/27 01:08:00;;;;;;;11.40;6.60;;;6.50;99.90;;;;;;5099501;28;20184;-50
2022/04/27 01:10:27;;;;;;;9.57;6.27;;;6.50;99.90;;;;;;5105666;28;20421;-50
2022/04/27 01:12:54;;;;;;;16.63;6.90;;;6.50;99.90;;;;;;5101113;28;20655;-50
2022/04/27 01:15:30;;;;;;;11.47;6.97;;;6.40;99.90;;;;;;5093506;28;20439;-50
2022/04/27 01:17:57;;;;;;;11.07;6.70;;;6.40;99.90;;;;;;5104212;28;20485;-50
2022/04/27 01:20:23;;;;;;;15.00;6.97;;;6.50;99.90;;;;;;5103504;28;20427;-50
2022/04/27 01:22:48;;;;;;;13.33;7.07;;;6.40;99.90;;;;;;5100122;28;20426;-50
2022/04/27 01:25:14;;;;;;;10.93;6.77;;;6.40;99.90;;;;;;5108187;28;20589;-50
2022/04/27 01:27:43;;;;;;;14.73;7.17;;;6.50;99.90;;;;;;5092082;28;20535;-50
2022/04/27 01:30:10;;;;;;;12.10;6.83;;;6.40;99.90;;;;;;5107088;28;20184;-50
2022/04/27 01:32:36;;;;;;;14.30;6.60;;;6.40;99.90;;;;;;5098101;28;20431;-50
2022/04/27 01:35:02;;;;;;;10.53;7.23;;;6.30;99.90;;;;;;5091912;28;20825;-50
2022/04/27 01:40:12;;;;;;;15.50;7.77;;;6.30;99.90;;;;;;5111322;28;20482;-50
2022/04/27 01:42:37;;;;;;;8.63;6.30;;;6.40;99.90;;;;;;5102814;28;20415;-50
2022/04/27 01:45:03;;;;;;;11.80;7.23;;;6.40;99.90;;;;;;5108144;28;20223;-50
2022/04/27 01:47:29;;;;;;;12.97;6.97;;;6.30;99.90;;;;;;5109182;28;20328;-50
2022/04/27 01:49:54;;;;;;;12.03;6.83;;;6.30;99.90;;;;;;5096454;28;20427;-50
2022/04/27 01:55:05;;;;;;;10.87;7.13;;;6.20;99.90;;;;;;5101553;28;20219;-50
2022/04/27 01:57:30;;;;;;;9.07;6.17;;;6.20;99.90;;;;;;5102980;28;20462;-50
2022/04/27 01:59:56;;;;;;;13.43;6.90;;;6.20;99.90;;;;;;5100765;28;20425;-50
2022/04/27 02:02:22;;;;;;;18.03;7.63;;;6.20;1.00;;;;;;5106020;28;20519;-50
2022/04/27 02:04:48;;;;;;;9.67;7.10;;;6.20;99.90;;;;;;5105921;28;20188;-50
2022/04/27 02:07:13;;;;;;;10.93;7.20;;;6.20;1.00;;;;;;5100874;28;20822;-50
2022/04/27 02:09:39;;;;;;;9.93;6.40;;;6.10;1.00;;;;;;5092636;28;20193;-51
2022/04/27 02:12:05;;;;;;;17.00;7.50;;;6.20;1.00;;;;;;5101144;28;20544;-50
2022/04/27 02:14:31;;;;;;;6.97;5.87;;;6.20;99.90;;;;;;5094734;28;20268;-50
2022/04/27 02:16:57;;;;;;;15.70;7.27;;;6.20;99.90;;;;;;5106899;28;20477;-50
2022/04/27 02:19:23;;;;;;;11.93;6.80;;;6.20;99.90;;;;;;5105222;28;20228;-50
2022/04/27 02:21:49;;;;;;;21.13;6.90;;;6.20;99.90;;;;;;5110087;28;20448;-50
2022/04/27 02:24:15;;;;;;;11.67;6.53;;;6.10;1.00;;;;;;5098814;28;20196;-50
2022/04/27 02:26:42;;;;;;;11.83;6.60;;;6.10;1.00;;;;;;5109862;28;20273;-51
2022/04/27 02:29:08;;;;;;;8.80;6.30;;;6.10;1.00;;;;;;5106233;28;20441;-50
2022/04/27 02:31:34;;;;;;;16.00;6.37;;;6.10;1.00;;;;;;5099109;28;20518;-50
2022/04/27 02:34:00;;;;;;;12.77;6.87;;;6.10;1.00;;;;;;5104522;28;20591;-50
2022/04/27 02:36:26;;;;;;;12.53;6.50;;;6.00;1.00;;;;;;5107067;28;20294;-50
2022/04/27 02:38:51;;;;;;;14.13;7.07;;;6.10;1.00;;;;;;5108539;28;20198;-50
2022/04/27 02:41:17;;;;;;;11.13;5.77;;;6.10;1.00;;;;;;5104286;28;20185;-50
2022/04/27 02:43:44;;;;;;;11.80;6.43;;;6.00;1.00;;;;;;5103902;28;20195;-50
2022/04/27 02:46:09;;;;;;;10.00;6.03;;;6.00;1.00;;;;;;5104922;28;20565;-50
2022/04/27 02:48:35;;;;;;;14.87;5.73;;;6.00;1.00;;;;;;5106571;28;20456;-50
2022/04/27 02:53:45;;;;;;;11.00;7.00;;;5.90;1.00;;;;;;5092692;28;20219;-51
2022/04/27 02:56:10;;;;;;;16.73;6.30;;;5.80;1.00;;;;;;5109903;28;20492;-50
2022/04/27 02:58:36;;;;;;;9.90;6.97;;;5.80;1.00;;;;;;5107675;28;20248;-50
2022/04/27 03:01:01;;;;;;;10.93;6.27;;;5.80;1.00;;;;;;5100290;28;20272;-50
2022/04/27 03:03:27;;;;;;;9.00;6.47;;;5.80;1.00;;;;;;5106930;28;20188;-50
2022/04/27 03:05:53;;;;;;;12.37;6.47;;;5.80;1.00;;;;;;5107049;28;20198;-50
2022/04/27 03:08:18;;;;;;;13.37;6.90;;;5.80;1.00;;;;;;5083776;28;20211;-50
2022/04/27 03:10:44;;;;;;;9.90;6.70;;;5.80;1.00;;;;;;5103873;28;20210;-50
2022/04/27 03:13:10;;;;;;;16.77;7.23;;;5.70;1.00;;;;;;5105875;28;20668;-51
2022/04/27 03:15:35;;;;;;;14.57;6.87;;;5.60;1.00;;;;;;5103747;28;20442;-50
2022/04/27 03:20:46;;;;;;;11.67;7.07;;;5.70;1.00;;;;;;5103960;28;20607;-50
2022/04/27 03:23:11;;;;;;;17.83;6.77;;;5.70;1.00;;;;;;5108961;28;20418;-50
2022/04/27 03:25:37;;;;;;;22.90;7.10;;;5.70;1.00;;;;;;5101145;28;20421;-50
2022/04/27 03:28:02;;;;;;;14.43;6.60;;;5.80;1.00;;;;;;5105727;28;20654;-50
2022/04/27 03:30:28;;;;;;;11.43;6.57;;;5.80;1.00;;;;;;5106066;28;20277;-50
2022/04/27 03:32:54;;;;;;;12.20;6.97;;;5.80;1.00;;;;;;5100925;28;20639;-50
2022/04/27 03:35:19;;;;;;;10.20;5.70;;;5.80;1.00;;;;;;5102998;28;20287;-50
2022/04/27 03:37:45;;;;;;;13.30;6.90;;;6.00;1.00;;;;;;5106122;28;20537;-50
2022/04/27 03:40:11;;;;;;;13.77;7.00;;;5.90;1.00;;;;;;5106792;28;20244;-50
2022/04/27 03:42:37;;;;;;;10.90;6.73;;;5.90;1.00;;;;;;5093922;28;20215;-50
2022/04/27 03:45:03;;;;;;;13.47;7.23;;;5.80;1.00;;;;;;5102776;28;20465;-50
2022/04/27 03:47:29;;;;;;;11.60;6.27;;;5.70;1.00;;;;;;5105037;28;20238;-50
2022/04/27 03:49:59;;;;;;;10.87;6.60;;;5.60;1.00;;;;;;5105954;28;20466;-50
2022/04/27 03:52:25;;;;;;;13.63;6.73;;;5.70;1.00;;;;;;5096172;28;20287;-50
2022/04/27 03:54:50;;;;;;;15.87;7.73;;;5.60;1.00;;;;;;5101213;28;20541;-51
2022/04/27 03:57:16;;;;;;;19.77;6.90;;;5.60;1.00;;;;;;5104285;28;20227;-50
2022/04/27 03:59:41;;;;;;;12.73;6.70;;;5.50;1.00;;;;;;5101389;28;20220;-51
2022/04/27 04:02:07;;;;;;;11.10;7.17;;;5.50;1.00;;;;;;5108591;28;20199;-50
2022/04/27 04:04:33;;;;;;;11.70;6.47;;;5.50;1.00;;;;;;5109771;28;20228;-50
2022/04/27 04:06:58;;;;;;;11.27;6.87;;;5.40;1.00;;;;;;5082333;28;20195;-50
2022/04/27 04:09:24;;;;;;;13.23;7.10;;;5.40;1.00;;;;;;5104197;28;20196;-50
2022/04/27 04:11:49;;;;;;;20.17;6.87;;;5.40;1.00;;;;;;5106781;28;20681;-50
2022/04/27 04:14:15;;;;;;;17.60;8.33;;;5.50;1.00;;;;;;5108413;28;20199;-50
2022/04/27 04:16:40;;;;;;;16.10;7.53;;;5.50;1.00;;;;;;5110422;28;20250;-50
2022/04/27 04:19:06;;;;;;;13.03;7.10;;;5.50;1.00;;;;;;5092015;28;20265;-50
2022/04/27 04:21:31;;;;;;;15.63;7.40;;;5.60;1.00;;;;;;5111519;28;20728;-50
2022/04/27 04:23:57;;;;;;;17.90;7.20;;;5.70;1.00;;;;;;5090510;28;20306;-50
2022/04/27 04:29:06;;;;;;;16.83;7.13;;;5.80;1.00;;;;;;5110691;28;20644;-50
2022/04/27 04:31:32;;;;;;;13.07;7.53;;;5.90;1.00;;;;;;5103993;28;20508;-50
2022/04/27 04:33:57;;;;;;;16.13;7.47;;;5.90;1.00;;;;;;5109069;28;20204;-50
2022/04/27 04:36:23;;;;;;;9.57;6.70;;;5.90;1.00;;;;;;5108606;28;20200;-51
2022/04/27 04:38:49;;;;;;;17.40;8.10;;;6.10;1.00;;;;;;5107654;28;22085;-50
2022/04/27 04:41:14;;;;;;;13.10;7.57;;;6.20;1.00;;;;;;5104109;28;20610;-50
2022/04/27 04:43:40;;;;;;;11.90;7.40;;;6.20;1.00;;;;;;5105081;28;20192;-50
2022/04/27 04:46:05;;;;;;;16.93;7.50;;;6.20;1.00;;;;;;5110003;28;20609;-50
2022/04/27 04:48:31;;;;;;;11.33;7.27;;;6.30;1.00;;;;;;5107548;28;20188;-50
2022/04/27 04:50:56;;;;;;;9.70;7.00;;;6.40;1.00;;;;;;5108680;28;20199;-50
2022/04/27 04:53:22;;;;;;;14.73;7.47;;;6.40;1.00;;;;;;5108713;28;20199;-50
2022/04/27 04:55:47;;;;;;;18.87;7.77;;;6.40;1.00;;;;;;5104440;28;20266;-50
2022/04/27 04:58:13;;;;;;;13.83;7.10;;;6.40;1.00;;;;;;5101553;28;20379;-50
2022/04/27 05:00:39;;;;;;;13.20;6.80;;;6.50;1.00;;;;;;5104769;28;20543;-50
2022/04/27 05:03:05;;;;;;;18.33;7.57;;;6.60;1.00;;;;;;5111188;28;20214;-50
2022/04/27 05:05:30;;;;;;;16.33;7.50;;;6.60;1.00;;;;;;5108972;28;20439;-50
2022/04/27 05:07:56;;;;;;;9.97;7.33;;;6.70;1.00;;;;;;5106683;28;20196;-51
2022/04/27 05:10:22;;;;;;;11.83;6.50;;;6.90;1.00;;;;;;5107645;28;20196;-50
2022/04/27 05:12:47;;;;;;;18.93;7.20;;;6.90;99.90;;;;;;5102335;28;20262;-50
2022/04/27 05:15:13;;;;;;;19.03;6.87;;;7.00;99.90;;;;;;5107760;28;20279;-50
2022/04/27 05:17:39;;;;;;;21.57;7.80;;;7.10;99.90;;;;;;5109193;28;20581;-50
2022/04/27 05:20:07;;;;;;;18.13;7.40;;;7.20;99.90;;;;;;5106800;28;20646;-50
2022/04/27 05:22:38;;;;;;;14.37;6.50;;;7.20;99.90;;;;;;5104431;28;20523;-50
2022/04/27 05:25:08;;;;;;;14.90;6.47;;;7.40;99.90;;;;;;5100704;28;20476;-51
2022/04/27 05:27:35;;;;;;;15.50;6.30;;;7.50;99.90;;;;;;5103653;28;21125;-50
2022/04/27 05:32:45;;;;;;;13.80;7.30;;;7.70;99.90;;;;;;5108645;28;20509;-50
2022/04/27 05:35:11;;;;;;;8.60;5.50;;;7.70;99.90;;;;;;5108022;28;20952;-50
2022/04/27 05:37:37;;;;;;;17.70;6.30;;;7.70;99.90;;;;;;5108151;28;20462;-50
2022/04/27 05:40:04;;;;;;;10.93;6.83;;;7.80;99.90;;;;;;5102066;28;20181;-50
2022/04/27 05:42:31;;;;;;;10.43;7.00;;;8.10;99.90;;;;;;5084488;28;20469;-50
2022/04/27 05:44:57;;;;;;;11.50;5.77;;;8.30;99.90;;;;;;5106674;28;20846;-50
2022/04/27 05:47:23;;;;;;;21.73;7.20;;;8.50;99.90;;;;;;5102548;28;20575;-50
2022/04/27 05:49:52;;;;;;;14.50;7.47;;;8.70;99.90;;;;;;5109137;28;20477;-50
2022/04/27 05:52:20;;;;;;;12.80;6.73;;;9.00;99.90;;;;;;5104225;28;21068;-50
2022/04/27 05:54:46;;;;;;;10.93;6.93;;;9.10;99.90;;;;;;5104407;28;20516;-51
2022/04/27 05:57:12;;;;;;;12.30;5.90;;;9.10;99.90;;;;;;5103711;28;20465;-50
2022/04/27 05:59:38;;;;;;;14.67;6.50;;;9.10;99.90;;;;;;5093934;28;20487;-50
2022/04/27 06:02:04;;;;;;;10.53;6.43;;;9.10;99.90;;;;;;5096952;28;20438;-50
2022/04/27 06:04:29;;;;;;;10.07;6.27;;;9.00;99.90;;;;;;5105269;28;20283;-50
2022/04/27 06:06:55;;;;;;;15.47;6.10;;;8.90;99.90;;;;;;5102096;27;20653;-51
2022/04/27 06:09:20;;;;;;;18.90;6.30;;;9.00;99.90;;;;;;5101985;27;20642;-50
2022/04/27 06:11:46;;;;;;;17.13;7.00;;;8.90;99.90;;;;;;5105521;28;20196;-50
2022/04/27 06:14:12;;;;;;;17.47;6.70;;;9.00;99.90;;;;;;5106020;28;20200;-50
2022/04/27 06:16:37;;;;;;;7.23;6.23;;;9.10;99.90;;;;;;5102226;28;20226;-50
2022/04/27 06:19:03;;;;;;;12.20;6.07;;;9.10;99.90;;;;;;5105112;28;20227;-50
2022/04/27 06:21:32;;;;;;;8.43;6.10;;;9.20;99.90;;;;;;5101687;28;20232;-50
2022/04/27 06:24:00;;;;;;;11.40;5.33;;;9.20;99.90;;;;;;5103859;27;20252;-50
2022/04/27 06:26:33;;;;;;;10.90;6.33;;;9.30;99.90;;;;;;5104675;27;20957;-50
2022/04/27 06:29:01;;;;;;;9.17;5.13;;;9.30;99.90;;;;;;5107603;28;20430;-49
2022/04/27 06:31:27;;;;;;;11.90;5.80;;;9.30;99.90;;;;;;5108884;28;20499;-50
2022/04/27 06:33:53;;;;;;;9.63;5.40;;;9.30;99.90;;;;;;5108661;28;20517;-50
2022/04/27 06:36:18;;;;;;;10.00;5.53;;;9.50;99.90;;;;;;5104362;28;20245;-50
2022/04/27 06:38:44;;;;;;;12.63;5.50;;;9.60;99.90;;;;;;5107765;28;20327;-53
2022/04/27 06:41:09;;;;;;;11.73;5.70;;;9.80;99.90;;;;;;5109790;28;20272;-53
2022/04/27 06:43:35;;;;;;;13.47;5.13;;;9.90;99.90;;;;;;5109556;28;20219;-53
2022/04/27 06:46:01;;;;;;;15.43;5.07;;;9.90;99.90;;;;;;5098713;27;20208;-52
2022/04/27 06:48:27;;;;;;;12.33;5.73;;;10.00;99.90;;;;;;5110150;28;20211;-54
2022/04/27 06:50:53;;;;;;;14.33;5.20;;;10.20;99.90;;;;;;5102304;28;20529;-53
2022/04/27 06:53:19;;;;;;;11.97;5.50;;;10.20;99.90;;;;;;5103922;28;20565;-53
2022/04/27 06:55:44;;;;;;;10.53;5.90;;;10.30;99.90;;;;;;5090293;28;20316;-53
2022/04/27 06:58:10;;;;;;;7.10;4.20;;;10.40;99.90;;;;;;5093779;28;20658;-53
2022/04/27 07:00:37;;;;;;;11.10;5.23;;;10.60;99.90;;;;;;5102612;28;20286;-53
2022/04/27 07:03:05;;;;;;;14.03;5.17;;;10.80;99.90;;;;;;5093862;28;20316;-53
2022/04/27 07:05:31;;;;;;;8.63;5.00;;;10.70;99.90;;;;;;5108784;28;20485;-53
2022/04/27 07:07:57;;;;;;;9.43;4.90;;;10.90;99.90;;;;;;5104389;28;20446;-53
2022/04/27 07:10:23;;;;;;;10.40;4.87;;;11.00;99.90;;;;;;5105248;28;20209;-53
2022/04/27 07:12:49;;;;;;;7.87;4.87;;;11.00;99.90;;;;;;5105412;28;20445;-53
2022/04/27 07:15:14;;;;;;;6.93;4.63;;;10.80;99.90;;;;;;5094476;28;20231;-53
2022/04/27 07:17:40;;;;;;;9.90;4.90;;;10.90;99.90;;;;;;5089997;28;20256;-53
2022/04/27 07:20:08;;;;;;;10.30;5.43;;;11.00;99.90;;;;;;5098506;28;20201;-52
2022/04/27 07:22:34;;;;;;;10.63;4.90;;;11.00;99.90;;;;;;5099368;28;20303;-53
2022/04/27 07:25:00;;;;;;;15.83;5.40;;;11.00;99.90;;;;;;5098605;28;20529;-52
2022/04/27 07:27:27;;;;;;;18.10;5.17;;;11.10;99.90;;;;;;5097505;28;20852;-53
2022/04/27 07:29:53;;;;;;;10.40;4.60;;;11.10;99.90;;;;;;5093731;28;20487;-53
2022/04/27 07:32:18;;;;;;;9.73;4.73;;;11.20;99.90;;;;;;5104736;28;20936;-53
2022/04/27 07:34:44;;;;;;;8.90;4.30;;;11.30;99.90;;;;;;5110308;28;20207;-53
2022/04/27 07:37:10;;;;;;;6.43;4.70;;;11.50;99.90;;;;;;5106733;28;20211;-53
2022/04/27 07:39:35;;;;;;;6.53;4.27;;;11.60;99.90;;;;;;5107513;28;20278;-53
2022/04/27 07:42:01;;;;;;;8.53;4.20;;;11.80;99.90;;;;;;5106321;28;20537;-52
2022/04/27 07:44:26;;;;;;;9.70;4.40;;;12.30;99.90;;;;;;5105036;28;20276;-52
2022/04/27 07:46:52;;;;;;;13.93;4.20;;;12.70;99.90;;;;;;5105152;28;20219;-52
2022/04/27 07:49:19;;;;;;;6.43;4.10;;;12.80;99.90;;;;;;5090527;28;20201;-53
2022/04/27 07:51:46;;;;;;;7.50;4.50;;;12.80;99.90;;;;;;5092613;28;20188;-52
2022/04/27 07:54:12;;;;;;;6.97;4.00;;;12.80;99.90;;;;;;5103931;28;20487;-53
2022/04/27 07:56:38;;;;;;;8.33;4.20;;;13.10;99.90;;;;;;5105676;28;22195;-52
2022/04/27 07:59:03;;;;;;;6.47;4.53;;;13.40;99.90;;;;;;5101782;28;20204;-53
2022/04/27 08:01:30;;;;;;;7.43;4.10;;;13.70;99.90;;;;;;5094196;28;20268;-53
2022/04/27 08:03:55;;;;;;;8.63;4.77;;;13.70;99.90;;;;;;5101601;28;20199;-52
2022/04/27 08:06:21;;;;;;;11.13;4.80;;;13.30;99.90;;;;;;5107654;28;20442;-53
2022/04/27 08:08:46;;;;;;;14.87;5.53;;;13.00;99.90;;;;;;5110613;28;20245;-52
2022/04/27 08:11:13;;;;;;;9.63;4.90;;;12.90;99.90;;;;;;5105973;28;20283;-52
2022/04/27 08:13:39;;;;;;;12.07;4.67;;;12.70;99.90;;;;;;5104731;28;20196;-53
2022/04/27 08:16:07;;;;;;;14.87;5.37;;;12.60;99.90;;;;;;5103642;28;20438;-52
2022/04/27 08:18:34;;;;;;;9.00;4.70;;;12.60;99.90;;;;;;5102307;28;20967;-52
2022/04/27 08:21:15;;;;;;;6.03;5.33;;;12.60;99.90;;;;;;5101104;28;20943;-52
2022/04/27 08:23:45;;;;;;;8.07;5.40;;;12.50;99.90;;;;;;5093944;28;20434;-52
2022/04/27 08:26:12;;;;;;;7.67;5.23;;;12.50;99.90;;;;;;5108690;28;20414;-53
2022/04/27 08:28:38;;;;;;;16.60;5.40;;;13.00;99.90;;;;;;5089812;28;20396;-52
2022/04/27 08:31:05;;;;;;;10.13;5.33;;;13.70;99.90;;;;;;5089639;28;20912;-52
2022/04/27 08:33:31;;;;;;;10.23;5.83;;;14.50;99.90;;;;;;5108356;28;20445;-52
2022/04/27 08:36:00;;;;;;;12.37;4.90;;;14.90;99.90;;;;;;5110020;28;21143;-52
2022/04/27 08:38:26;;;;;;;8.97;4.70;;;15.30;99.90;;;;;;5109037;28;20470;-52
2022/04/27 08:40:53;;;;;;;18.30;5.13;;;15.80;99.90;;;;;;5110051;28;20872;-52
2022/04/27 08:43:20;;;;;;;8.43;4.33;;;16.00;99.90;;;;;;5110282;28;20780;-52
2022/04/27 08:45:46;;;;;;;6.80;4.80;;;16.40;99.90;;;;;;5101391;28;20543;-51
2022/04/27 08:48:14;;;;;;;8.30;4.77;;;16.70;99.90;;;;;;5112700;28;21103;-51
2022/04/27 08:50:40;;;;;;;5.83;4.87;;;16.80;99.90;;;;;;5113418;28;20513;-52
2022/04/27 08:53:06;;;;;;;8.43;5.17;;;16.80;99.90;;;;;;5111634;28;20906;-52
2022/04/27 08:55:34;;;;;;;6.33;4.70;;;17.00;99.90;;;;;;5095953;28;20506;-52
2022/04/27 08:58:16;;;;;;;7.87;4.60;;;17.00;99.90;;;;;;5113175;28;20492;-52
2022/04/27 09:00:44;;;;;;;7.77;4.50;;;17.30;99.90;;;;;;5112415;28;20438;-52
2022/04/27 09:03:26;;;;;;;5.33;3.80;;;17.60;99.90;;;;;;5101380;28;20959;-52
2022/04/27 09:05:59;;;;;;;6.23;4.20;;;17.90;99.90;;;;;;5094847;28;20488;-51
2022/04/27 09:08:45;;;;;;;8.40;4.20;;;17.80;99.90;;;;;;5096354;28;20833;-52
2022/04/27 09:11:20;;;;;;;10.37;4.47;;;17.70;99.90;;;;;;5113155;28;20481;-51
2022/04/27 09:13:50;;;;;;;6.20;3.60;;;17.70;99.90;;;;;;5112113;28;21068;-52
2022/04/27 09:16:18;;;;;;;10.60;4.17;;;17.60;99.90;;;;;;5102526;28;20577;-52
2022/04/27 09:21:58;;;;;;;5.97;4.20;;;18.10;99.90;;;;;;5113181;28;20779;-52
2022/04/27 09:24:24;;;;;;;9.50;4.63;;;18.20;99.90;;;;;;5101181;28;20767;-52
2022/04/27 09:27:16;;;;;;;7.70;4.80;;;18.40;99.90;;;;;;5092480;28;20427;-52
2022/04/27 09:29:42;;;;;;;10.27;5.80;;;17.70;99.90;;;;;;5098543;28;20446;-52
2022/04/27 09:32:08;;;;;;;7.57;4.60;;;16.70;99.90;;;;;;5112954;28;20478;-52
2022/04/27 09:34:48;;;;;;;6.40;4.50;;;16.50;99.90;;;;;;5111712;28;20438;-52
2022/04/27 09:37:16;;;;;;;7.20;5.20;;;16.80;99.90;;;;;;5112631;28;20478;-52
2022/04/27 09:39:43;;;;;;;13.13;5.33;;;17.10;99.90;;;;;;5107391;28;20852;-52
2022/04/27 09:42:10;;;;;;;12.53;5.27;;;17.40;99.90;;;;;;5112538;28;20414;-52
2022/04/27 09:44:37;;;;;;;10.47;5.17;;;17.50;99.90;;;;;;5111241;28;20434;-52
2022/04/27 09:47:05;;;;;;;11.93;4.70;;;17.60;99.90;;;;;;5107824;28;20442;-52
2022/04/27 09:49:36;;;;;;;12.23;5.80;;;17.70;99.90;;;;;;5109091;28;20540;-52
2022/04/27 09:52:03;;;;;;;5.83;4.53;;;17.80;99.90;;;;;;5108496;28;20476;-52
2022/04/27 09:54:31;;;;;;;20.33;11.10;;;18.00;99.90;;;;;;5100642;28;20528;-52
2022/04/27 09:56:59;;;;;;;7.40;4.90;;;17.80;99.90;;;;;;5100374;28;20435;-52
2022/04/27 09:59:30;;;;;;;11.17;5.20;;;17.60;99.90;;;;;;5091398;28;20443;-52
2022/04/27 10:02:04;;;;;;;12.00;7.50;;;17.70;99.90;;;;;;5093263;28;20481;-52
2022/04/27 10:04:29;;;;;;;6.63;5.40;;;17.50;99.90;;;;;;5110721;28;20444;-52
2022/04/27 10:06:58;;;;;;;5.60;4.10;;;17.60;99.90;;;;;;5104817;28;20447;-52
2022/04/27 10:09:27;;;;;;;11.37;4.87;;;17.60;99.90;;;;;;5105994;27;20196;-51
2022/04/27 10:11:57;;;;;;;6.60;4.93;;;17.10;99.90;;;;;;5111522;28;20454;-52
2022/04/27 10:14:25;;;;;;;6.30;4.60;;;16.30;99.90;;;;;;5109491;28;20908;-52
2022/04/27 10:16:51;;;;;;;7.13;5.10;;;15.80;99.90;;;;;;5110153;28;20460;-52
2022/04/27 10:19:17;;;;;;;6.20;4.50;;;15.40;99.90;;;;;;5108986;28;20494;-52
2022/04/27 10:21:56;;;;;;;8.80;6.13;;;15.20;99.90;;;;;;5099801;28;20496;-52
2022/04/27 10:24:34;;;;;;;8.70;5.70;;;15.40;99.90;;;;;;5106597;28;20437;-52
2022/04/27 10:27:41;;;;;;;7.40;5.07;;;15.80;99.90;;;;;;5091100;28;20399;-52
2022/04/27 10:30:08;;;;;;;7.80;5.33;;;16.30;99.90;;;;;;5085438;28;20851;-52
2022/04/27 10:32:35;;;;;;;7.60;4.93;;;16.20;99.90;;;;;;5096942;28;20445;-52
2022/04/27 10:35:14;;;;;;;9.57;5.70;;;16.00;99.90;;;;;;5111473;28;20422;-52
2022/04/27 10:37:54;;;;;;;6.87;5.30;;;16.00;99.90;;;;;;5111284;28;20475;-52
2022/04/27 10:40:30;;;;;;;7.83;5.70;;;15.90;99.90;;;;;;5111192;28;20740;-52
2022/04/27 10:43:08;;;;;;;12.20;5.87;;;16.10;99.90;;;;;;5111472;28;20868;-52
2022/04/27 10:45:35;;;;;;;11.40;4.97;;;16.00;99.90;;;;;;5111139;28;20433;-53
2022/04/27 10:48:04;;;;;;;7.93;4.70;;;15.80;99.90;;;;;;5109763;28;20422;-52
2022/04/27 10:50:35;;;;;;;5.70;5.00;;;15.80;99.90;;;;;;5108676;28;20489;-52
2022/04/27 10:53:18;;;;;;;9.37;5.57;;;16.30;99.90;;;;;;5090745;28;20431;-53
2022/04/27 10:55:47;;;;;;;8.43;5.00;;;17.30;99.90;;;;;;5102478;28;20426;-53
2022/04/27 10:58:34;;;;;;;11.10;7.93;;;17.30;99.90;;;;;;5110781;28;21014;-52
2022/04/27 11:01:02;;;;;;;7.40;4.77;;;17.50;99.90;;;;;;5110811;28;20425;-53
2022/04/27 11:03:40;;;;;;;6.70;4.43;;;17.60;99.90;;;;;;5110691;28;20397;-52
2022/04/27 11:06:10;;;;;;;6.40;4.80;;;17.80;99.90;;;;;;5108090;28;20414;-53
2022/04/27 11:09:19;;;;;;;7.33;4.40;;;18.40;99.90;;;;;;5108669;28;20440;-53
2022/04/27 11:11:56;;;;;;;7.43;4.00;;;19.20;99.90;;;;;;5110650;28;20418;-53
2022/04/27 11:14:29;;;;;;;20.50;3.70;;;20.00;99.90;;;;;;5092240;28;20426;-53
2022/04/27 11:16:55;;;;;;;6.13;3.73;;;20.40;99.90;;;;;;5110639;28;20502;-53
2022/04/27 11:19:21;;;;;;;6.37;3.90;;;20.40;99.90;;;;;;5110338;28;20577;-54
2022/04/27 11:21:48;;;;;;;4.63;4.07;;;20.80;99.90;;;;;;5109270;28;20422;-53
2022/04/27 11:24:15;;;;;;;7.47;4.50;;;20.90;99.90;;;;;;5110664;28;20411;-53
2022/04/27 11:26:43;;;;;;;10.20;4.63;;;21.30;99.90;;;;;;5109343;28;20441;-53
2022/04/27 11:29:10;;;;;;;7.50;4.13;;;21.10;99.90;;;;;;5110601;28;20415;-53
2022/04/27 11:31:35;;;;;;;7.00;4.13;;;20.30;99.90;;;;;;5108368;28;20442;-53
2022/04/27 11:34:01;;;;;;;5.50;4.40;;;19.20;99.90;;;;;;5110182;28;20876;-52
2022/04/27 11:36:28;;;;;;;8.50;4.53;;;18.70;99.90;;;;;;5109164;28;20208;-53
2022/04/27 11:38:55;;;;;;;8.20;4.80;;;18.40;99.90;;;;;;5089973;28;20741;-53
2022/04/27 11:41:23;;;;;;;6.60;4.57;;;18.10;99.90;;;;;;5097150;28;20441;-53
2022/04/27 11:43:50;;;;;;;5.17;4.43;;;17.60;99.90;;;;;;5108251;28;20426;-53
2022/04/27 11:46:17;;;;;;;5.90;4.60;;;17.50;99.90;;;;;;5103385;28;20476;-54
2022/04/27 11:48:52;;;;;;;11.87;4.13;;;18.00;99.90;;;;;;5110197;28;20433;-53
2022/04/27 11:51:18;;;;;;;7.53;4.87;;;18.70;99.90;;;;;;5099731;28;20476;-53
2022/04/27 11:53:48;;;;;;;5.60;4.47;;;19.20;99.90;;;;;;5094700;28;20423;-53
2022/04/27 11:56:18;;;;;;;12.40;4.53;;;19.00;99.90;;;;;;5091025;28;20193;-53
2022/04/27 11:58:45;;;;;;;8.10;4.70;;;18.50;99.90;;;;;;5093601;28;20466;-52
2022/04/27 12:01:19;;;;;;;5.63;4.23;;;18.90;99.90;;;;;;5103084;28;20844;-53
2022/04/27 12:03:44;;;;;;;6.90;4.53;;;19.60;99.90;;;;;;5087198;28;20439;-53
2022/04/27 12:06:18;;;;;;;5.27;4.67;;;20.30;99.90;;;;;;5108177;28;20436;-53
2022/04/27 12:08:43;;;;;;;7.20;4.83;;;20.40;99.90;;;;;;5107991;28;20214;-53
2022/04/27 12:11:09;;;;;;;10.00;4.50;;;20.60;99.90;;;;;;5109099;28;21130;-53
2022/04/27 12:13:35;;;;;;;8.67;4.70;;;20.60;99.90;;;;;;5092520;28;20280;-53
2022/04/27 12:16:01;;;;;;;7.60;4.30;;;20.40;99.90;;;;;;5089974;28;20173;-51
2022/04/27 12:18:27;;;;;;;9.10;4.93;;;19.70;99.90;;;;;;5111157;28;20595;-51
2022/04/27 12:20:55;;;;;;;8.40;4.97;;;18.70;99.90;;;;;;5108876;28;20196;-51
2022/04/27 12:23:38;;;;;;;8.00;5.03;;;19.00;99.90;;;;;;5108964;28;20430;-50
2022/04/27 12:26:06;;;;;;;12.43;4.73;;;19.70;99.90;;;;;;5096206;28;20465;-50
2022/04/27 12:28:40;;;;;;;8.63;4.80;;;20.30;99.90;;;;;;5093872;28;20430;-51
2022/04/27 12:31:08;;;;;;;4.97;4.47;;;20.50;99.90;;;;;;5093510;28;20829;-51
2022/04/27 12:33:35;;;;;;;10.80;4.53;;;20.70;99.90;;;;;;5100953;28;20557;-51
2022/04/27 12:39:07;;;;;;;6.37;5.00;;;19.60;99.90;;;;;;5107735;27;20479;-51
2022/04/27 12:41:37;;;;;;;5.37;3.90;;;20.30;99.90;;;;;;5115793;27;20779;-50
2022/04/27 12:44:17;;;;;;;6.30;4.67;;;20.80;99.90;;;;;;5107983;27;20441;-51
2022/04/27 12:46:58;;;;;;;4.90;4.40;;;20.40;99.90;;;;;;5101843;28;20406;-50
2022/04/27 12:49:26;;;;;;;6.67;4.20;;;19.10;99.90;;;;;;5112174;28;20429;-51
2022/04/27 12:51:51;;;;;;;7.93;4.60;;;18.10;99.90;;;;;;5112829;28;20418;-51
2022/04/27 12:54:18;;;;;;;7.60;5.00;;;17.50;99.90;;;;;;5110737;27;20871;-51
2022/04/27 12:56:44;;;;;;;6.07;4.50;;;17.00;99.90;;;;;;5112545;28;20629;-50
2022/04/27 12:59:12;;;;;;;7.03;4.30;;;17.40;99.90;;;;;;5110326;28;20534;-50
2022/04/27 13:01:38;;;;;;;8.17;4.70;;;17.60;99.90;;;;;;5103507;28;20192;-50
2022/04/27 13:04:05;;;;;;;8.43;4.83;;;17.30;99.90;;;;;;5092993;28;20519;-50
2022/04/27 13:06:31;;;;;;;5.53;4.47;;;17.10;99.90;;;;;;5108264;28;20429;-51
2022/04/27 13:11:55;;;;;;;6.73;5.20;;;17.90;99.90;;;;;;5106377;28;20462;-58
2022/04/27 13:11:56;;;;;;;6.00;4.20;;;18.80;99.90;;;;;;5092509;28;20603;-51
2022/04/27 13:14:26;;;;;;;6.93;4.17;;;20.00;99.90;;;;;;5092273;28;20423;-50